Frigg — 5BHQ2 — position and weather

sailwx.info

Track history (hours):
 
Tides and Currents Weather Stations Pressure Air Temp Water Temp Dewpoint Dewpoint Depression Visibility Wind Speed Wind Dir Waves Ship Positions

Frigg

Last reported at 2017-Sep-20 03:20 UTC. Time now 2017-Sep-22 19:13 UTC.
Position N 37°22' E 024°01'.

Length 60 m; draft 2.3 m.

Type: Ship. MMSI: 212390000.

Date/timePositionNaut miles runAvg speedWind from/ knotsBaromVisibWave heightAir tempDewpointWater temp
2017-Sep-20 03:20N 37°22' E 024°01'2 7.4
2017-Sep-20 03:01N 37°20' E 023°59'4 7.5
2017-Sep-20 02:31N 37°17' E 023°56'4 7.6
2017-Sep-20 02:00N 37°14' E 023°54'4 7.7
2017-Sep-20 01:31N 37°10' E 023°51'4 7.7
2017-Sep-20 01:00N 37°07' E 023°49'4 7.6
2017-Sep-20 00:31N 37°04' E 023°46'4 7.4
2017-Sep-20 00:00N 37°01' E 023°43'4 7.3
2017-Sep-19 23:30N 36°58' E 023°41'4 7.5
2017-Sep-19 23:00N 36°55' E 023°38'4 7.2
2017-Sep-19 22:31N 36°52' E 023°36'4 7.2
2017-Sep-19 21:56N 36°48' E 023°33'4 7.2
2017-Sep-19 21:21N 36°44' E 023°30'9 7.3
2017-Sep-19 20:08N 36°37' E 023°24'188 6.4
2017-Sep-18 14:30N 38°10' E 019°58'50 6.6
2017-Sep-18 06:52N 38°46' E 019°14'10 6.7
2017-Sep-18 05:21N 38°54' E 019°05'4 6.7
2017-Sep-18 04:45N 38°56' E 019°01'52 7.1
2017-Sep-17 21:28N 39°34' E 018°15'22 7.0
2017-Sep-17 18:20N 39°50' E 017°55'2 6.6
2017-Sep-17 18:00N 39°51' E 017°53'3 6.5
2017-Sep-17 17:30N 39°53' E 017°50'3 6.5
2017-Sep-17 17:00N 39°56' E 017°47'3 6.4
2017-Sep-17 16:31N 39°58' E 017°43'3 6.4
2017-Sep-17 16:00N 39°60' E 017°40'3 6.3
2017-Sep-17 15:31N 40°02' E 017°37'3 6.4
2017-Sep-17 15:01N 40°04' E 017°34'3 6.5
2017-Sep-17 14:31N 40°07' E 017°31'3 6.6
2017-Sep-17 14:01N 40°09' E 017°28'3 6.5
2017-Sep-17 13:30N 40°11' E 017°25'3 6.5
2017-Sep-17 13:01N 40°13' E 017°22'3 6.6
2017-Sep-17 12:31N 40°15' E 017°19'3 6.6
2017-Sep-17 12:00N 40°18' E 017°16'3 6.6
2017-Sep-17 11:31N 40°20' E 017°13'3 6.5
2017-Sep-17 11:00N 40°22' E 017°09'3 5.8
2017-Sep-17 10:31N 40°25' E 017°07'2 4.6
2017-Sep-17 10:01N 40°27' E 017°07'2 4.8
2017-Sep-17 09:31N 40°29' E 017°08'1 2.6
2017-Sep-17 08:59N 40°30' E 017°09'0 0.0
2017-Sep-17 08:29N 40°30' E 017°09'0 0.0
2017-Sep-17 07:59N 40°30' E 017°09'0 0.0
2017-Sep-17 07:26N 40°30' E 017°09'0 0.0
2017-Sep-17 06:59N 40°30' E 017°09'0 0.0
2017-Sep-17 06:29N 40°30' E 017°09'0 0.0
2017-Sep-17 05:59N 40°30' E 017°09'0 0.0
2017-Sep-17 05:29N 40°30' E 017°09'0 0.0
2017-Sep-17 04:59N 40°30' E 017°09'0 0.0
2017-Sep-17 04:29N 40°30' E 017°09'0 0.0
2017-Sep-17 03:59N 40°30' E 017°09'0 0.0
2017-Sep-17 03:29N 40°30' E 017°09'0 0.0
2017-Sep-17 02:59N 40°30' E 017°09'0 0.0
2017-Sep-17 02:29N 40°30' E 017°09'0 0.0
2017-Sep-17 01:59N 40°30' E 017°09'0 0.0
2017-Sep-17 01:29N 40°30' E 017°09'0 0.0
2017-Sep-17 00:59N 40°30' E 017°09'0 0.0
2017-Sep-17 00:25N 40°30' E 017°09'0 0.0
2017-Sep-16 23:59N 40°30' E 017°09'0 0.0
2017-Sep-16 23:29N 40°30' E 017°09'0 0.0
2017-Sep-16 22:56N 40°30' E 017°09'0 0.0
2017-Sep-16 22:29N 40°30' E 017°09'0 0.0
2017-Sep-16 21:59N 40°30' E 017°09'0 0.0
2017-Sep-16 21:29N 40°30' E 017°09'0 0.0
2017-Sep-16 20:59N 40°30' E 017°09'0 0.0
2017-Sep-16 20:29N 40°30' E 017°09'0 0.0
2017-Sep-16 19:59N 40°30' E 017°09'0 0.0
2017-Sep-16 19:29N 40°30' E 017°09'0 0.0
2017-Sep-16 18:59N 40°30' E 017°09'0 0.0
2017-Sep-16 18:29N 40°30' E 017°09'0 0.0
2017-Sep-16 17:59N 40°30' E 017°09'0 0.0
2017-Sep-16 17:29N 40°30' E 017°09'0 0.0
2017-Sep-16 16:59N 40°30' E 017°09'0 0.0
2017-Sep-16 16:29N 40°30' E 017°09'0 0.0
2017-Sep-16 15:59N 40°30' E 017°09'0 0.0
2017-Sep-16 15:29N 40°30' E 017°09'0 0.0
2017-Sep-16 14:59N 40°30' E 017°09'0 0.0
2017-Sep-16 14:29N 40°30' E 017°09'0 0.0
2017-Sep-16 13:59N 40°30' E 017°09'0 0.0
2017-Sep-16 13:29N 40°30' E 017°09'0 0.0
2017-Sep-16 12:58N 40°30' E 017°09'0 0.0
2017-Sep-16 12:29N 40°30' E 017°09'0 0.0
2017-Sep-16 11:56N 40°30' E 017°09'0 0.0
2017-Sep-16 11:29N 40°30' E 017°09'0 0.0
2017-Sep-16 10:59N 40°30' E 017°09'0 0.0
2017-Sep-16 10:29N 40°30' E 017°09'0 0.0
2017-Sep-16 09:59N 40°30' E 017°09'0 0.0
2017-Sep-16 09:29N 40°30' E 017°09'0 0.0
2017-Sep-16 08:58N 40°30' E 017°09'0 0.0
2017-Sep-16 08:29N 40°30' E 017°09'0 0.0
2017-Sep-16 07:56N 40°30' E 017°09'0 0.0
2017-Sep-16 07:29N 40°30' E 017°09'0 0.0
2017-Sep-16 06:58N 40°30' E 017°09'0 0.0
2017-Sep-16 06:28N 40°30' E 017°09'0 0.0
2017-Sep-16 05:58N 40°30' E 017°09'0 0.0
2017-Sep-16 05:29N 40°30' E 017°09'0 0.0
2017-Sep-16 04:59N 40°30' E 017°09'0 0.0
2017-Sep-16 04:29N 40°30' E 017°09'0 0.0
2017-Sep-16 03:59N 40°30' E 017°09'0 0.0
2017-Sep-16 03:28N 40°30' E 017°09'0 0.0
2017-Sep-16 02:58N 40°30' E 017°09'0 0.0
2017-Sep-16 02:28N 40°30' E 017°09'0 0.0
2017-Sep-16 01:59N 40°30' E 017°09'0 0.0
2017-Sep-16 01:28N 40°30' E 017°09'0 0.0
2017-Sep-16 00:58N 40°30' E 017°09'0 0.0
2017-Sep-16 00:28N 40°30' E 017°09'0 0.0
2017-Sep-15 23:59N 40°30' E 017°09'0 0.0
2017-Sep-15 23:28N 40°30' E 017°09'0 0.0
2017-Sep-15 22:59N 40°30' E 017°09'0 0.0
2017-Sep-15 22:29N 40°30' E 017°09'0 0.0
2017-Sep-15 21:58N 40°30' E 017°09'0 0.0
2017-Sep-15 21:29N 40°30' E 017°09'0 0.0
2017-Sep-15 20:59N 40°30' E 017°09'0 0.0
2017-Sep-15 20:28N 40°30' E 017°09'0 0.0
2017-Sep-15 19:58N 40°30' E 017°09'0 0.0
2017-Sep-15 19:28N 40°30' E 017°09'0 0.0
2017-Sep-15 18:58N 40°30' E 017°09'0 0.0
2017-Sep-15 18:28N 40°30' E 017°09'0 0.0
2017-Sep-15 17:58N 40°30' E 017°09'0 0.0
2017-Sep-15 17:28N 40°30' E 017°09'0 0.0
2017-Sep-15 16:58N 40°30' E 017°09'0 0.0
2017-Sep-15 16:28N 40°30' E 017°09'0 0.0
2017-Sep-15 15:58N 40°30' E 017°09'0 0.0
2017-Sep-15 15:28N 40°30' E 017°09'0 0.0
2017-Sep-15 14:58N 40°30' E 017°09'0 0.0
2017-Sep-15 14:28N 40°30' E 017°09'0 0.0
2017-Sep-15 13:58N 40°30' E 017°09'0 0.0
2017-Sep-15 13:29N 40°30' E 017°09'0 0.0
2017-Sep-15 12:58N 40°30' E 017°09'0 0.0
2017-Sep-15 12:28N 40°30' E 017°09'0 0.0
2017-Sep-15 11:58N 40°30' E 017°09'0 0.0
2017-Sep-15 11:28N 40°30' E 017°09'0 0.0
2017-Sep-15 10:58N 40°30' E 017°09'0 0.0
2017-Sep-15 10:28N 40°30' E 017°09'0 0.2
2017-Sep-15 09:58N 40°30' E 017°10'0 0.0
2017-Sep-15 09:28N 40°30' E 017°10'0 0.0
2017-Sep-15 08:59N 40°30' E 017°10'0 0.0
2017-Sep-15 08:28N 40°30' E 017°10'0 0.0
2017-Sep-15 07:58N 40°30' E 017°10'0 0.0
2017-Sep-15 07:28N 40°30' E 017°10'0 0.0
2017-Sep-15 06:58N 40°30' E 017°10'0 0.0
2017-Sep-15 06:28N 40°30' E 017°10'0 0.0
2017-Sep-15 05:58N 40°30' E 017°10'0 0.0
2017-Sep-15 05:28N 40°30' E 017°10'0 0.0
2017-Sep-15 04:58N 40°30' E 017°10'0 0.0
2017-Sep-15 04:28N 40°30' E 017°10'0 0.0
2017-Sep-15 03:58N 40°30' E 017°10'0 0.0
2017-Sep-15 03:28N 40°30' E 017°10'0 0.0
2017-Sep-15 02:58N 40°30' E 017°10'0 0.0
2017-Sep-15 02:28N 40°30' E 017°10'0 0.0
2017-Sep-15 01:58N 40°30' E 017°10'0 0.0
2017-Sep-15 01:28N 40°30' E 017°10'0 0.0
2017-Sep-15 00:58N 40°30' E 017°10'0 0.0
2017-Sep-15 00:25N 40°30' E 017°10'0 0.0
2017-Sep-14 23:58N 40°30' E 017°10'0 0.0
2017-Sep-14 23:28N 40°30' E 017°10'0 0.0
2017-Sep-14 22:58N 40°30' E 017°10'0 0.0
2017-Sep-14 22:28N 40°30' E 017°10'0 0.0
2017-Sep-14 21:58N 40°30' E 017°10'0 0.0
2017-Sep-14 21:28N 40°30' E 017°10'0 0.0
2017-Sep-14 20:58N 40°30' E 017°10'0 0.0
2017-Sep-14 20:28N 40°30' E 017°10'0 0.0
2017-Sep-14 19:58N 40°30' E 017°10'0 0.0
2017-Sep-14 19:28N 40°30' E 017°10'0 0.0
2017-Sep-14 18:58N 40°30' E 017°10'0 0.0
2017-Sep-14 18:28N 40°30' E 017°10'0 0.0
2017-Sep-14 17:58N 40°30' E 017°10'0 0.0
2017-Sep-14 17:22N 40°30' E 017°10'0 0.0
2017-Sep-14 16:58N 40°30' E 017°10'0 0.0
2017-Sep-14 16:28N 40°30' E 017°10'0 0.0
2017-Sep-14 15:58N 40°30' E 017°10'0 0.0
2017-Sep-14 15:28N 40°30' E 017°10'0 0.0
2017-Sep-14 14:58N 40°30' E 017°10'0 0.0
2017-Sep-14 14:28N 40°30' E 017°10'0 0.0
2017-Sep-14 13:58N 40°30' E 017°10'0 0.0
2017-Sep-14 13:28N 40°30' E 017°10'0 0.0
2017-Sep-14 12:58N 40°30' E 017°10'0 0.0
2017-Sep-14 12:28N 40°30' E 017°10'0 0.0
2017-Sep-14 11:58N 40°30' E 017°10'0 0.0
2017-Sep-14 11:28N 40°30' E 017°10'0 0.0
2017-Sep-14 10:58N 40°30' E 017°10'0 0.0
2017-Sep-14 10:28N 40°30' E 017°10'0 0.0
2017-Sep-14 09:55N 40°30' E 017°10'0 0.0
2017-Sep-14 09:28N 40°30' E 017°10'0 0.0
2017-Sep-14 08:58N 40°30' E 017°10'0 0.0
2017-Sep-14 08:28N 40°30' E 017°10'0 0.0
2017-Sep-14 07:58N 40°30' E 017°10'0 0.0
2017-Sep-14 07:28N 40°30' E 017°10'0 0.0
2017-Sep-14 06:55N 40°30' E 017°10'0 0.0
2017-Sep-14 06:28N 40°30' E 017°10'0 0.0
2017-Sep-14 05:58N 40°30' E 017°10'0 0.0
2017-Sep-14 05:28N 40°30' E 017°10'0 0.0
2017-Sep-14 04:58N 40°30' E 017°10'0 0.0
2017-Sep-14 04:28N 40°30' E 017°10'0 0.0
2017-Sep-14 03:58N 40°30' E 017°10'0 0.0
2017-Sep-14 03:28N 40°30' E 017°10'0 0.0
2017-Sep-14 02:58N 40°30' E 017°10'0 0.0
2017-Sep-14 02:28N 40°30' E 017°10'0 0.0
2017-Sep-14 01:58N 40°30' E 017°10'0 0.0
2017-Sep-14 01:28N 40°30' E 017°10'0 0.0
2017-Sep-14 00:58N 40°30' E 017°10'0 0.0
2017-Sep-14 00:28N 40°30' E 017°10'0 0.0
2017-Sep-13 23:58N 40°30' E 017°10'0 0.0
2017-Sep-13 23:28N 40°30' E 017°10'0 0.0
2017-Sep-13 22:58N 40°30' E 017°10'0 0.0
2017-Sep-13 22:28N 40°30' E 017°10'0 0.0
2017-Sep-13 21:58N 40°30' E 017°10'0 0.0
2017-Sep-13 21:28N 40°30' E 017°10'0 0.0
2017-Sep-13 20:58N 40°30' E 017°10'0 0.0
2017-Sep-13 20:28N 40°30' E 017°10'0 0.0
2017-Sep-13 19:58N 40°30' E 017°10'0 0.0
2017-Sep-13 19:28N 40°30' E 017°10'0 0.0
2017-Sep-13 18:52N 40°30' E 017°10'0 0.0
2017-Sep-13 18:25N 40°30' E 017°10'0 0.0
2017-Sep-13 17:58N 40°30' E 017°10'0 0.0
2017-Sep-13 17:28N 40°30' E 017°10'0 0.0
2017-Sep-13 16:58N 40°30' E 017°10'0 0.0
2017-Sep-13 16:28N 40°30' E 017°10'0 0.0
2017-Sep-13 15:58N 40°30' E 017°10'0 0.0
2017-Sep-13 15:28N 40°30' E 017°10'0 0.0
2017-Sep-13 14:58N 40°30' E 017°10'0 0.0
2017-Sep-13 14:28N 40°30' E 017°10'0 0.0
2017-Sep-13 13:58N 40°30' E 017°10'0 0.0
2017-Sep-13 13:28N 40°30' E 017°10'0 0.0
2017-Sep-13 12:58N 40°30' E 017°10'0 0.0
2017-Sep-13 12:28N 40°30' E 017°10'0 0.0
2017-Sep-13 11:58N 40°30' E 017°10'0 0.0
2017-Sep-13 11:28N 40°30' E 017°10'0 0.0
2017-Sep-13 10:58N 40°30' E 017°10'0 0.0
2017-Sep-13 10:28N 40°30' E 017°10'0 0.0
2017-Sep-13 09:58N 40°30' E 017°10'0 0.0
2017-Sep-13 09:28N 40°30' E 017°10'0 0.0
2017-Sep-13 08:58N 40°30' E 017°10'0 0.0
2017-Sep-13 08:28N 40°30' E 017°10'0 0.0
2017-Sep-13 07:58N 40°30' E 017°10'0 0.0
2017-Sep-13 07:28N 40°30' E 017°10'0 0.0
2017-Sep-13 06:58N 40°30' E 017°10'0 0.0
2017-Sep-13 06:28N 40°30' E 017°10'0 0.0
2017-Sep-13 05:58N 40°30' E 017°10'0 0.0
2017-Sep-13 05:28N 40°30' E 017°10'0 0.0
2017-Sep-13 04:58N 40°30' E 017°10'0 0.0
2017-Sep-13 04:28N 40°30' E 017°10'0 0.0
2017-Sep-13 03:58N 40°30' E 017°10'0 0.0
2017-Sep-13 03:22N 40°30' E 017°10'0 0.0
2017-Sep-13 02:58N 40°30' E 017°10'0 0.0
2017-Sep-13 02:28N 40°30' E 017°10'0 0.0
2017-Sep-13 01:58N 40°30' E 017°10'0 0.0
2017-Sep-13 01:28N 40°30' E 017°10'0 0.0
2017-Sep-13 00:55N 40°30' E 017°10'0 0.0
2017-Sep-13 00:25N 40°30' E 017°10'0 0.0
2017-Sep-12 23:58N 40°30' E 017°10'0 0.0
2017-Sep-12 23:28N 40°30' E 017°10'0 0.0
2017-Sep-12 22:58N 40°30' E 017°10'0 0.0
2017-Sep-12 22:28N 40°30' E 017°10'0 0.0
2017-Sep-12 21:58N 40°30' E 017°10'0 0.0
2017-Sep-12 21:28N 40°30' E 017°10'0 0.0
2017-Sep-12 20:58N 40°30' E 017°10'0 0.0
2017-Sep-12 20:28N 40°30' E 017°10'0 0.0
2017-Sep-12 19:58N 40°30' E 017°10'0 0.0
2017-Sep-12 19:28N 40°30' E 017°10'0 0.0
2017-Sep-12 18:58N 40°30' E 017°10'0 0.0
2017-Sep-12 18:25N 40°30' E 017°10'0 0.0
2017-Sep-12 17:58N 40°30' E 017°10'0 0.0
2017-Sep-12 17:28N 40°30' E 017°10'0 0.0
2017-Sep-12 16:58N 40°30' E 017°10'0 0.0
2017-Sep-12 16:28N 40°30' E 017°10'0 0.0
2017-Sep-12 15:58N 40°30' E 017°10'0 0.0
2017-Sep-12 15:28N 40°30' E 017°10'0 0.0
2017-Sep-12 14:58N 40°30' E 017°10'0 0.0
2017-Sep-12 14:28N 40°30' E 017°10'0 0.0
2017-Sep-12 13:58N 40°30' E 017°10'0 0.0
2017-Sep-12 13:28N 40°30' E 017°10'0 0.0
2017-Sep-12 12:58N 40°30' E 017°10'0 0.0
2017-Sep-12 12:25N 40°30' E 017°10'0 0.0
2017-Sep-12 11:58N 40°30' E 017°10'0 0.0
2017-Sep-12 11:28N 40°30' E 017°10'0 0.0
2017-Sep-12 10:58N 40°30' E 017°10'0 0.0
2017-Sep-12 10:28N 40°30' E 017°10'0 0.0
2017-Sep-12 09:58N 40°30' E 017°10'0 0.0
2017-Sep-12 09:25N 40°30' E 017°10'0 0.0
2017-Sep-12 08:58N 40°30' E 017°10'0 0.0
2017-Sep-12 08:22N 40°30' E 017°10'0 0.0
2017-Sep-12 07:58N 40°30' E 017°10'0 0.0
2017-Sep-12 07:28N 40°30' E 017°10'0 0.0
2017-Sep-12 06:58N 40°30' E 017°10'0 0.0
2017-Sep-12 06:28N 40°30' E 017°10'0 0.0
2017-Sep-12 05:58N 40°30' E 017°10'0 0.0
2017-Sep-12 05:28N 40°30' E 017°10'0 0.0
2017-Sep-12 04:58N 40°30' E 017°10'0 0.0
2017-Sep-12 04:16N 40°30' E 017°10'0 0.0
2017-Sep-12 03:52N 40°30' E 017°10'0 0.0
2017-Sep-12 03:28N 40°30' E 017°10'0 0.0
2017-Sep-12 02:52N 40°30' E 017°10'0 0.0
2017-Sep-12 02:28N 40°30' E 017°10'0 0.0
2017-Sep-12 01:52N 40°30' E 017°10'0 0.0
2017-Sep-12 01:28N 40°30' E 017°10'0 0.0
2017-Sep-12 00:58N 40°30' E 017°10'0 0.0
2017-Sep-12 00:28N 40°30' E 017°10'0 0.0
2017-Sep-11 23:58N 40°30' E 017°10'0 0.0
2017-Sep-11 23:19N 40°30' E 017°10'0 0.0
2017-Sep-11 22:58N 40°30' E 017°10'0 0.0
2017-Sep-11 22:28N 40°30' E 017°10'0 0.0
2017-Sep-11 21:58N 40°30' E 017°10'0 0.0
2017-Sep-11 21:28N 40°30' E 017°10'0 0.0
2017-Sep-11 20:58N 40°30' E 017°10'0 0.0
2017-Sep-11 20:28N 40°30' E 017°10'0 0.0
2017-Sep-11 19:55N 40°30' E 017°10'0 0.0
2017-Sep-11 19:25N 40°30' E 017°10'0 0.0
2017-Sep-11 18:58N 40°30' E 017°10'0 0.0
2017-Sep-11 18:28N 40°30' E 017°10'0 0.0
2017-Sep-11 17:55N 40°30' E 017°10'0 0.0
2017-Sep-11 17:22N 40°30' E 017°10'0 0.0
2017-Sep-11 16:52N 40°30' E 017°10'0 0.0
2017-Sep-11 16:28N 40°30' E 017°10'0 0.0
2017-Sep-11 15:58N 40°30' E 017°10'0 0.0
2017-Sep-11 15:28N 40°30' E 017°10'0 0.0
2017-Sep-11 14:52N 40°30' E 017°10'0 0.0
2017-Sep-11 14:22N 40°30' E 017°10'0 0.0
2017-Sep-11 13:58N 40°30' E 017°10'0 0.0
2017-Sep-11 13:01N 40°30' E 017°10'0 0.0
2017-Sep-11 12:58N 40°30' E 017°10'0 0.0
2017-Sep-11 12:28N 40°30' E 017°10'0 0.0
2017-Sep-11 11:40N 40°30' E 017°10'0 0.0
2017-Sep-11 11:22N 40°30' E 017°10'0 0.0
2017-Sep-11 10:58N 40°30' E 017°10'0 0.0
2017-Sep-11 10:28N 40°30' E 017°10'0 0.0
2017-Sep-11 09:58N 40°30' E 017°10'0 0.0
2017-Sep-11 09:28N 40°30' E 017°10'0 0.0
2017-Sep-11 08:55N 40°30' E 017°10'0 0.0
2017-Sep-11 08:28N 40°30' E 017°10'0 0.0
2017-Sep-11 07:58N 40°30' E 017°10'0 0.0
2017-Sep-11 07:28N 40°30' E 017°10'0 0.0
2017-Sep-11 06:58N 40°30' E 017°10'0 0.0
2017-Sep-11 06:28N 40°30' E 017°10'0 0.0
2017-Sep-11 05:58N 40°30' E 017°10'0 0.0
2017-Sep-11 05:28N 40°30' E 017°10'0 0.0
2017-Sep-11 04:58N 40°30' E 017°10'0 0.0
2017-Sep-11 04:28N 40°30' E 017°10'0 0.0
2017-Sep-11 03:58N 40°30' E 017°10'0 0.0
2017-Sep-11 03:28N 40°30' E 017°10'0 0.0
2017-Sep-11 02:58N 40°30' E 017°10'0 0.0
2017-Sep-11 02:28N 40°30' E 017°10'0 0.0
2017-Sep-11 01:58N 40°30' E 017°10'0 0.0
2017-Sep-11 01:28N 40°30' E 017°10'0 0.0
2017-Sep-11 00:58N 40°30' E 017°10'0 0.0
2017-Sep-11 00:28N 40°30' E 017°10'0 0.0
2017-Sep-10 23:58N 40°30' E 017°10'0 0.0
2017-Sep-10 23:28N 40°30' E 017°10'0 0.0
2017-Sep-10 22:58N 40°30' E 017°10'0 0.0
2017-Sep-10 22:28N 40°30' E 017°10'0 0.0
2017-Sep-10 21:58N 40°30' E 017°10'0 0.0
2017-Sep-10 21:28N 40°30' E 017°10'0 0.0
2017-Sep-10 20:58N 40°30' E 017°10'0 0.0
2017-Sep-10 20:28N 40°30' E 017°10'0 0.0
2017-Sep-10 19:58N 40°30' E 017°10'0 0.0
2017-Sep-10 19:28N 40°30' E 017°10'0 0.0
2017-Sep-10 18:58N 40°30' E 017°10'0 0.0
2017-Sep-10 18:28N 40°30' E 017°10'0 0.0
2017-Sep-10 17:58N 40°30' E 017°10'0 0.0
2017-Sep-10 17:28N 40°30' E 017°10'0 0.0
2017-Sep-10 16:58N 40°30' E 017°10'0 0.0
2017-Sep-10 16:28N 40°30' E 017°10'0 0.0
2017-Sep-10 15:58N 40°30' E 017°10'0 0.0
2017-Sep-10 15:28N 40°30' E 017°10'0 0.0
2017-Sep-10 14:58N 40°30' E 017°10'0 0.0
2017-Sep-10 13:58N 40°30' E 017°10'0 0.0
2017-Sep-10 13:28N 40°30' E 017°10'0 0.0
2017-Sep-10 12:58N 40°30' E 017°10'0 0.0
2017-Sep-10 12:28N 40°30' E 017°10'0 0.0
2017-Sep-10 11:58N 40°30' E 017°10'0 0.0
2017-Sep-10 11:28N 40°30' E 017°10'0 0.0
2017-Sep-10 10:58N 40°30' E 017°10'0 0.0
2017-Sep-10 10:28N 40°30' E 017°10'0 0.0
2017-Sep-10 09:58N 40°30' E 017°10'0 0.0
2017-Sep-10 09:28N 40°30' E 017°10'0 0.0
2017-Sep-10 08:58N 40°30' E 017°10'0 0.0
2017-Sep-10 08:28N 40°30' E 017°10'0 0.0
2017-Sep-10 07:58N 40°30' E 017°10'0 0.0
2017-Sep-10 07:28N 40°30' E 017°10'0 0.0
2017-Sep-10 06:58N 40°30' E 017°10'0 0.0
2017-Sep-10 06:28N 40°30' E 017°10'0 0.0
2017-Sep-10 05:58N 40°30' E 017°10'0 0.0
2017-Sep-10 05:28N 40°30' E 017°10'0 0.0
2017-Sep-10 04:58N 40°30' E 017°10'0 0.0
2017-Sep-10 04:28N 40°30' E 017°10'0 0.0
2017-Sep-10 03:58N 40°30' E 017°10'0 0.0
2017-Sep-10 03:28N 40°30' E 017°10'  
Track history (hours):
 
Tides and Currents Weather Stations Pressure Air Temp Water Temp Dewpoint Dewpoint Depression Visibility Wind Speed Wind Dir Waves Ship Positions

Frigg

Last reported at 2017-Sep-20 03:20 UTC. Time now 2017-Sep-22 19:13 UTC.
Position N 37°22' E 024°01'.

Length 60 m; draft 2.3 m.

Type: Ship. MMSI: 212390000.

Date/timePositionNaut miles runAvg speedWind from/ knotsBaromVisibWave heightAir tempDewpointWater temp
2017-Sep-20 03:20N 37°22' E 024°01'2 7.4
2017-Sep-20 03:01N 37°20' E 023°59'4 7.5
2017-Sep-20 02:31N 37°17' E 023°56'4 7.6
2017-Sep-20 02:00N 37°14' E 023°54'4 7.7
2017-Sep-20 01:31N 37°10' E 023°51'4 7.7
2017-Sep-20 01:00N 37°07' E 023°49'4 7.6
2017-Sep-20 00:31N 37°04' E 023°46'4 7.4
2017-Sep-20 00:00N 37°01' E 023°43'4 7.3
2017-Sep-19 23:30N 36°58' E 023°41'4 7.5
2017-Sep-19 23:00N 36°55' E 023°38'4 7.2
2017-Sep-19 22:31N 36°52' E 023°36'4 7.2
2017-Sep-19 21:56N 36°48' E 023°33'4 7.2
2017-Sep-19 21:21N 36°44' E 023°30'9 7.3
2017-Sep-19 20:08N 36°37' E 023°24'188 6.4
2017-Sep-18 14:30N 38°10' E 019°58'50 6.6
2017-Sep-18 06:52N 38°46' E 019°14'10 6.7
2017-Sep-18 05:21N 38°54' E 019°05'4 6.7
2017-Sep-18 04:45N 38°56' E 019°01'52 7.1
2017-Sep-17 21:28N 39°34' E 018°15'22 7.0
2017-Sep-17 18:20N 39°50' E 017°55'2 6.6
2017-Sep-17 18:00N 39°51' E 017°53'3 6.5
2017-Sep-17 17:30N 39°53' E 017°50'3 6.5
2017-Sep-17 17:00N 39°56' E 017°47'3 6.4
2017-Sep-17 16:31N 39°58' E 017°43'3 6.4
2017-Sep-17 16:00N 39°60' E 017°40'3 6.3
2017-Sep-17 15:31N 40°02' E 017°37'3 6.4
2017-Sep-17 15:01N 40°04' E 017°34'3 6.5
2017-Sep-17 14:31N 40°07' E 017°31'3 6.6
2017-Sep-17 14:01N 40°09' E 017°28'3 6.5
2017-Sep-17 13:30N 40°11' E 017°25'3 6.5
2017-Sep-17 13:01N 40°13' E 017°22'3 6.6
2017-Sep-17 12:31N 40°15' E 017°19'3 6.6
2017-Sep-17 12:00N 40°18' E 017°16'3 6.6
2017-Sep-17 11:31N 40°20' E 017°13'3 6.5
2017-Sep-17 11:00N 40°22' E 017°09'3 5.8
2017-Sep-17 10:31N 40°25' E 017°07'2 4.6
2017-Sep-17 10:01N 40°27' E 017°07'2 4.8
2017-Sep-17 09:31N 40°29' E 017°08'1 2.6
2017-Sep-17 08:59N 40°30' E 017°09'0 0.0
2017-Sep-17 08:29N 40°30' E 017°09'0 0.0
2017-Sep-17 07:59N 40°30' E 017°09'0 0.0
2017-Sep-17 07:26N 40°30' E 017°09'0 0.0
2017-Sep-17 06:59N 40°30' E 017°09'0 0.0
2017-Sep-17 06:29N 40°30' E 017°09'0 0.0
2017-Sep-17 05:59N 40°30' E 017°09'0 0.0
2017-Sep-17 05:29N 40°30' E 017°09'0 0.0
2017-Sep-17 04:59N 40°30' E 017°09'0 0.0
2017-Sep-17 04:29N 40°30' E 017°09'0 0.0
2017-Sep-17 03:59N 40°30' E 017°09'0 0.0
2017-Sep-17 03:29N 40°30' E 017°09'0 0.0
2017-Sep-17 02:59N 40°30' E 017°09'0 0.0
2017-Sep-17 02:29N 40°30' E 017°09'0 0.0
2017-Sep-17 01:59N 40°30' E 017°09'0 0.0
2017-Sep-17 01:29N 40°30' E 017°09'0 0.0
2017-Sep-17 00:59N 40°30' E 017°09'0 0.0
2017-Sep-17 00:25N 40°30' E 017°09'0 0.0
2017-Sep-16 23:59N 40°30' E 017°09'0 0.0
2017-Sep-16 23:29N 40°30' E 017°09'0 0.0
2017-Sep-16 22:56N 40°30' E 017°09'0 0.0
2017-Sep-16 22:29N 40°30' E 017°09'0 0.0
2017-Sep-16 21:59N 40°30' E 017°09'0 0.0
2017-Sep-16 21:29N 40°30' E 017°09'0 0.0
2017-Sep-16 20:59N 40°30' E 017°09'0 0.0
2017-Sep-16 20:29N 40°30' E 017°09'0 0.0
2017-Sep-16 19:59N 40°30' E 017°09'0 0.0
2017-Sep-16 19:29N 40°30' E 017°09'0 0.0
2017-Sep-16 18:59N 40°30' E 017°09'0 0.0
2017-Sep-16 18:29N 40°30' E 017°09'0 0.0
2017-Sep-16 17:59N 40°30' E 017°09'0 0.0
2017-Sep-16 17:29N 40°30' E 017°09'0 0.0
2017-Sep-16 16:59N 40°30' E 017°09'0 0.0
2017-Sep-16 16:29N 40°30' E 017°09'0 0.0
2017-Sep-16 15:59N 40°30' E 017°09'0 0.0
2017-Sep-16 15:29N 40°30' E 017°09'0 0.0
2017-Sep-16 14:59N 40°30' E 017°09'0 0.0
2017-Sep-16 14:29N 40°30' E 017°09'0 0.0
2017-Sep-16 13:59N 40°30' E 017°09'0 0.0
2017-Sep-16 13:29N 40°30' E 017°09'0 0.0
2017-Sep-16 12:58N 40°30' E 017°09'0 0.0
2017-Sep-16 12:29N 40°30' E 017°09'0 0.0
2017-Sep-16 11:56N 40°30' E 017°09'0 0.0
2017-Sep-16 11:29N 40°30' E 017°09'0 0.0
2017-Sep-16 10:59N 40°30' E 017°09'0 0.0
2017-Sep-16 10:29N 40°30' E 017°09'0 0.0
2017-Sep-16 09:59N 40°30' E 017°09'0 0.0
2017-Sep-16 09:29N 40°30' E 017°09'0 0.0
2017-Sep-16 08:58N 40°30' E 017°09'0 0.0
2017-Sep-16 08:29N 40°30' E 017°09'0 0.0
2017-Sep-16 07:56N 40°30' E 017°09'0 0.0
2017-Sep-16 07:29N 40°30' E 017°09'0 0.0
2017-Sep-16 06:58N 40°30' E 017°09'0 0.0
2017-Sep-16 06:28N 40°30' E 017°09'0 0.0
2017-Sep-16 05:58N 40°30' E 017°09'0 0.0
2017-Sep-16 05:29N 40°30' E 017°09'0 0.0
2017-Sep-16 04:59N 40°30' E 017°09'0 0.0
2017-Sep-16 04:29N 40°30' E 017°09'0 0.0
2017-Sep-16 03:59N 40°30' E 017°09'0 0.0
2017-Sep-16 03:28N 40°30' E 017°09'0 0.0
2017-Sep-16 02:58N 40°30' E 017°09'0 0.0
2017-Sep-16 02:28N 40°30' E 017°09'0 0.0
2017-Sep-16 01:59N 40°30' E 017°09'0 0.0
2017-Sep-16 01:28N 40°30' E 017°09'0 0.0
2017-Sep-16 00:58N 40°30' E 017°09'0 0.0
2017-Sep-16 00:28N 40°30' E 017°09'0 0.0
2017-Sep-15 23:59N 40°30' E 017°09'0 0.0
2017-Sep-15 23:28N 40°30' E 017°09'0 0.0
2017-Sep-15 22:59N 40°30' E 017°09'0 0.0
2017-Sep-15 22:29N 40°30' E 017°09'0 0.0
2017-Sep-15 21:58N 40°30' E 017°09'0 0.0
2017-Sep-15 21:29N 40°30' E 017°09'0 0.0
2017-Sep-15 20:59N 40°30' E 017°09'0 0.0
2017-Sep-15 20:28N 40°30' E 017°09'0 0.0
2017-Sep-15 19:58N 40°30' E 017°09'0 0.0
2017-Sep-15 19:28N 40°30' E 017°09'0 0.0
2017-Sep-15 18:58N 40°30' E 017°09'0 0.0
2017-Sep-15 18:28N 40°30' E 017°09'0 0.0
2017-Sep-15 17:58N 40°30' E 017°09'0 0.0
2017-Sep-15 17:28N 40°30' E 017°09'0 0.0
2017-Sep-15 16:58N 40°30' E 017°09'0 0.0
2017-Sep-15 16:28N 40°30' E 017°09'0 0.0
2017-Sep-15 15:58N 40°30' E 017°09'0 0.0
2017-Sep-15 15:28N 40°30' E 017°09'0 0.0
2017-Sep-15 14:58N 40°30' E 017°09'0 0.0
2017-Sep-15 14:28N 40°30' E 017°09'0 0.0
2017-Sep-15 13:58N 40°30' E 017°09'0 0.0
2017-Sep-15 13:29N 40°30' E 017°09'0 0.0
2017-Sep-15 12:58N 40°30' E 017°09'0 0.0
2017-Sep-15 12:28N 40°30' E 017°09'0 0.0
2017-Sep-15 11:58N 40°30' E 017°09'0 0.0
2017-Sep-15 11:28N 40°30' E 017°09'0 0.0
2017-Sep-15 10:58N 40°30' E 017°09'0 0.0
2017-Sep-15 10:28N 40°30' E 017°09'0 0.2
2017-Sep-15 09:58N 40°30' E 017°10'0 0.0
2017-Sep-15 09:28N 40°30' E 017°10'0 0.0
2017-Sep-15 08:59N 40°30' E 017°10'0 0.0
2017-Sep-15 08:28N 40°30' E 017°10'0 0.0
2017-Sep-15 07:58N 40°30' E 017°10'0 0.0
2017-Sep-15 07:28N 40°30' E 017°10'0 0.0
2017-Sep-15 06:58N 40°30' E 017°10'0 0.0
2017-Sep-15 06:28N 40°30' E 017°10'0 0.0
2017-Sep-15 05:58N 40°30' E 017°10'0 0.0
2017-Sep-15 05:28N 40°30' E 017°10'0 0.0
2017-Sep-15 04:58N 40°30' E 017°10'0 0.0
2017-Sep-15 04:28N 40°30' E 017°10'0 0.0
2017-Sep-15 03:58N 40°30' E 017°10'0 0.0
2017-Sep-15 03:28N 40°30' E 017°10'0 0.0
2017-Sep-15 02:58N 40°30' E 017°10'0 0.0
2017-Sep-15 02:28N 40°30' E 017°10'0 0.0
2017-Sep-15 01:58N 40°30' E 017°10'0 0.0
2017-Sep-15 01:28N 40°30' E 017°10'0 0.0
2017-Sep-15 00:58N 40°30' E 017°10'0 0.0
2017-Sep-15 00:25N 40°30' E 017°10'0 0.0
2017-Sep-14 23:58N 40°30' E 017°10'0 0.0
2017-Sep-14 23:28N 40°30' E 017°10'0 0.0
2017-Sep-14 22:58N 40°30' E 017°10'0 0.0
2017-Sep-14 22:28N 40°30' E 017°10'0 0.0
2017-Sep-14 21:58N 40°30' E 017°10'0 0.0
2017-Sep-14 21:28N 40°30' E 017°10'0 0.0
2017-Sep-14 20:58N 40°30' E 017°10'0 0.0
2017-Sep-14 20:28N 40°30' E 017°10'0 0.0
2017-Sep-14 19:58N 40°30' E 017°10'0 0.0
2017-Sep-14 19:28N 40°30' E 017°10'0 0.0
2017-Sep-14 18:58N 40°30' E 017°10'0 0.0
2017-Sep-14 18:28N 40°30' E 017°10'0 0.0
2017-Sep-14 17:58N 40°30' E 017°10'0 0.0
2017-Sep-14 17:22N 40°30' E 017°10'0 0.0
2017-Sep-14 16:58N 40°30' E 017°10'0 0.0
2017-Sep-14 16:28N 40°30' E 017°10'0 0.0
2017-Sep-14 15:58N 40°30' E 017°10'0 0.0
2017-Sep-14 15:28N 40°30' E 017°10'0 0.0
2017-Sep-14 14:58N 40°30' E 017°10'0 0.0
2017-Sep-14 14:28N 40°30' E 017°10'0 0.0
2017-Sep-14 13:58N 40°30' E 017°10'0 0.0
2017-Sep-14 13:28N 40°30' E 017°10'0 0.0
2017-Sep-14 12:58N 40°30' E 017°10'0 0.0
2017-Sep-14 12:28N 40°30' E 017°10'0 0.0
2017-Sep-14 11:58N 40°30' E 017°10'0 0.0
2017-Sep-14 11:28N 40°30' E 017°10'0 0.0
2017-Sep-14 10:58N 40°30' E 017°10'0 0.0
2017-Sep-14 10:28N 40°30' E 017°10'0 0.0
2017-Sep-14 09:55N 40°30' E 017°10'0 0.0
2017-Sep-14 09:28N 40°30' E 017°10'0 0.0
2017-Sep-14 08:58N 40°30' E 017°10'0 0.0
2017-Sep-14 08:28N 40°30' E 017°10'0 0.0
2017-Sep-14 07:58N 40°30' E 017°10'0 0.0
2017-Sep-14 07:28N 40°30' E 017°10'0 0.0
2017-Sep-14 06:55N 40°30' E 017°10'0 0.0
2017-Sep-14 06:28N 40°30' E 017°10'0 0.0
2017-Sep-14 05:58N 40°30' E 017°10'0 0.0
2017-Sep-14 05:28N 40°30' E 017°10'0 0.0
2017-Sep-14 04:58N 40°30' E 017°10'0 0.0
2017-Sep-14 04:28N 40°30' E 017°10'0 0.0
2017-Sep-14 03:58N 40°30' E 017°10'0 0.0
2017-Sep-14 03:28N 40°30' E 017°10'0 0.0
2017-Sep-14 02:58N 40°30' E 017°10'0 0.0
2017-Sep-14 02:28N 40°30' E 017°10'0 0.0
2017-Sep-14 01:58N 40°30' E 017°10'0 0.0
2017-Sep-14 01:28N 40°30' E 017°10'0 0.0
2017-Sep-14 00:58N 40°30' E 017°10'0 0.0
2017-Sep-14 00:28N 40°30' E 017°10'0 0.0
2017-Sep-13 23:58N 40°30' E 017°10'0 0.0
2017-Sep-13 23:28N 40°30' E 017°10'0 0.0
2017-Sep-13 22:58N 40°30' E 017°10'0 0.0
2017-Sep-13 22:28N 40°30' E 017°10'0 0.0
2017-Sep-13 21:58N 40°30' E 017°10'0 0.0
2017-Sep-13 21:28N 40°30' E 017°10'0 0.0
2017-Sep-13 20:58N 40°30' E 017°10'0 0.0
2017-Sep-13 20:28N 40°30' E 017°10'0 0.0
2017-Sep-13 19:58N 40°30' E 017°10'0 0.0
2017-Sep-13 19:28N 40°30' E 017°10'0 0.0
2017-Sep-13 18:52N 40°30' E 017°10'0 0.0
2017-Sep-13 18:25N 40°30' E 017°10'0 0.0
2017-Sep-13 17:58N 40°30' E 017°10'0 0.0
2017-Sep-13 17:28N 40°30' E 017°10'0 0.0
2017-Sep-13 16:58N 40°30' E 017°10'0 0.0
2017-Sep-13 16:28N 40°30' E 017°10'0 0.0
2017-Sep-13 15:58N 40°30' E 017°10'0 0.0
2017-Sep-13 15:28N 40°30' E 017°10'0 0.0
2017-Sep-13 14:58N 40°30' E 017°10'0 0.0
2017-Sep-13 14:28N 40°30' E 017°10'0 0.0
2017-Sep-13 13:58N 40°30' E 017°10'0 0.0
2017-Sep-13 13:28N 40°30' E 017°10'0 0.0
2017-Sep-13 12:58N 40°30' E 017°10'0 0.0
2017-Sep-13 12:28N 40°30' E 017°10'0 0.0
2017-Sep-13 11:58N 40°30' E 017°10'0 0.0
2017-Sep-13 11:28N 40°30' E 017°10'0 0.0
2017-Sep-13 10:58N 40°30' E 017°10'0 0.0
2017-Sep-13 10:28N 40°30' E 017°10'0 0.0
2017-Sep-13 09:58N 40°30' E 017°10'0 0.0
2017-Sep-13 09:28N 40°30' E 017°10'0 0.0
2017-Sep-13 08:58N 40°30' E 017°10'0 0.0
2017-Sep-13 08:28N 40°30' E 017°10'0 0.0
2017-Sep-13 07:58N 40°30' E 017°10'0 0.0
2017-Sep-13 07:28N 40°30' E 017°10'0 0.0
2017-Sep-13 06:58N 40°30' E 017°10'0 0.0
2017-Sep-13 06:28N 40°30' E 017°10'0 0.0
2017-Sep-13 05:58N 40°30' E 017°10'0 0.0
2017-Sep-13 05:28N 40°30' E 017°10'0 0.0
2017-Sep-13 04:58N 40°30' E 017°10'0 0.0
2017-Sep-13 04:28N 40°30' E 017°10'0 0.0
2017-Sep-13 03:58N 40°30' E 017°10'0 0.0
2017-Sep-13 03:22N 40°30' E 017°10'0 0.0
2017-Sep-13 02:58N 40°30' E 017°10'0 0.0
2017-Sep-13 02:28N 40°30' E 017°10'0 0.0
2017-Sep-13 01:58N 40°30' E 017°10'0 0.0
2017-Sep-13 01:28N 40°30' E 017°10'0 0.0
2017-Sep-13 00:55N 40°30' E 017°10'0 0.0
2017-Sep-13 00:25N 40°30' E 017°10'0 0.0
2017-Sep-12 23:58N 40°30' E 017°10'0 0.0
2017-Sep-12 23:28N 40°30' E 017°10'0 0.0
2017-Sep-12 22:58N 40°30' E 017°10'0 0.0
2017-Sep-12 22:28N 40°30' E 017°10'0 0.0
2017-Sep-12 21:58N 40°30' E 017°10'0 0.0
2017-Sep-12 21:28N 40°30' E 017°10'0 0.0
2017-Sep-12 20:58N 40°30' E 017°10'0 0.0
2017-Sep-12 20:28N 40°30' E 017°10'0 0.0
2017-Sep-12 19:58N 40°30' E 017°10'0 0.0
2017-Sep-12 19:28N 40°30' E 017°10'0 0.0
2017-Sep-12 18:58N 40°30' E 017°10'0 0.0
2017-Sep-12 18:25N 40°30' E 017°10'0 0.0
2017-Sep-12 17:58N 40°30' E 017°10'0 0.0
2017-Sep-12 17:28N 40°30' E 017°10'0 0.0
2017-Sep-12 16:58N 40°30' E 017°10'0 0.0
2017-Sep-12 16:28N 40°30' E 017°10'0 0.0
2017-Sep-12 15:58N 40°30' E 017°10'0 0.0
2017-Sep-12 15:28N 40°30' E 017°10'0 0.0
2017-Sep-12 14:58N 40°30' E 017°10'0 0.0
2017-Sep-12 14:28N 40°30' E 017°10'0 0.0
2017-Sep-12 13:58N 40°30' E 017°10'0 0.0
2017-Sep-12 13:28N 40°30' E 017°10'0 0.0
2017-Sep-12 12:58N 40°30' E 017°10'0 0.0
2017-Sep-12 12:25N 40°30' E 017°10'0 0.0
2017-Sep-12 11:58N 40°30' E 017°10'0 0.0
2017-Sep-12 11:28N 40°30' E 017°10'0 0.0
2017-Sep-12 10:58N 40°30' E 017°10'0 0.0
2017-Sep-12 10:28N 40°30' E 017°10'0 0.0
2017-Sep-12 09:58N 40°30' E 017°10'0 0.0
2017-Sep-12 09:25N 40°30' E 017°10'0 0.0
2017-Sep-12 08:58N 40°30' E 017°10'0 0.0
2017-Sep-12 08:22N 40°30' E 017°10'0 0.0
2017-Sep-12 07:58N 40°30' E 017°10'0 0.0
2017-Sep-12 07:28N 40°30' E 017°10'0 0.0
2017-Sep-12 06:58N 40°30' E 017°10'0 0.0
2017-Sep-12 06:28N 40°30' E 017°10'0 0.0
2017-Sep-12 05:58N 40°30' E 017°10'0 0.0
2017-Sep-12 05:28N 40°30' E 017°10'0 0.0
2017-Sep-12 04:58N 40°30' E 017°10'0 0.0
2017-Sep-12 04:16N 40°30' E 017°10'0 0.0
2017-Sep-12 03:52N 40°30' E 017°10'0 0.0
2017-Sep-12 03:28N 40°30' E 017°10'0 0.0
2017-Sep-12 02:52N 40°30' E 017°10'0 0.0
2017-Sep-12 02:28N 40°30' E 017°10'0 0.0
2017-Sep-12 01:52N 40°30' E 017°10'0 0.0
2017-Sep-12 01:28N 40°30' E 017°10'0 0.0
2017-Sep-12 00:58N 40°30' E 017°10'0 0.0
2017-Sep-12 00:28N 40°30' E 017°10'0 0.0
2017-Sep-11 23:58N 40°30' E 017°10'0 0.0
2017-Sep-11 23:19N 40°30' E 017°10'0 0.0
2017-Sep-11 22:58N 40°30' E 017°10'0 0.0
2017-Sep-11 22:28N 40°30' E 017°10'0 0.0
2017-Sep-11 21:58N 40°30' E 017°10'0 0.0
2017-Sep-11 21:28N 40°30' E 017°10'0 0.0
2017-Sep-11 20:58N 40°30' E 017°10'0 0.0
2017-Sep-11 20:28N 40°30' E 017°10'0 0.0
2017-Sep-11 19:55N 40°30' E 017°10'0 0.0
2017-Sep-11 19:25N 40°30' E 017°10'0 0.0
2017-Sep-11 18:58N 40°30' E 017°10'0 0.0
2017-Sep-11 18:28N 40°30' E 017°10'0 0.0
2017-Sep-11 17:55N 40°30' E 017°10'0 0.0
2017-Sep-11 17:22N 40°30' E 017°10'0 0.0
2017-Sep-11 16:52N 40°30' E 017°10'0 0.0
2017-Sep-11 16:28N 40°30' E 017°10'0 0.0
2017-Sep-11 15:58N 40°30' E 017°10'0 0.0
2017-Sep-11 15:28N 40°30' E 017°10'0 0.0
2017-Sep-11 14:52N 40°30' E 017°10'0 0.0
2017-Sep-11 14:22N 40°30' E 017°10'0 0.0
2017-Sep-11 13:58N 40°30' E 017°10'0 0.0
2017-Sep-11 13:01N 40°30' E 017°10'0 0.0
2017-Sep-11 12:58N 40°30' E 017°10'0 0.0
2017-Sep-11 12:28N 40°30' E 017°10'0 0.0
2017-Sep-11 11:40N 40°30' E 017°10'0 0.0
2017-Sep-11 11:22N 40°30' E 017°10'0 0.0
2017-Sep-11 10:58N 40°30' E 017°10'0 0.0
2017-Sep-11 10:28N 40°30' E 017°10'0 0.0
2017-Sep-11 09:58N 40°30' E 017°10'0 0.0
2017-Sep-11 09:28N 40°30' E 017°10'0 0.0
2017-Sep-11 08:55N 40°30' E 017°10'0 0.0
2017-Sep-11 08:28N 40°30' E 017°10'0 0.0
2017-Sep-11 07:58N 40°30' E 017°10'0 0.0
2017-Sep-11 07:28N 40°30' E 017°10'0 0.0
2017-Sep-11 06:58N 40°30' E 017°10'0 0.0
2017-Sep-11 06:28N 40°30' E 017°10'0 0.0
2017-Sep-11 05:58N 40°30' E 017°10'0 0.0
2017-Sep-11 05:28N 40°30' E 017°10'0 0.0
2017-Sep-11 04:58N 40°30' E 017°10'0 0.0
2017-Sep-11 04:28N 40°30' E 017°10'0 0.0
2017-Sep-11 03:58N 40°30' E 017°10'0 0.0
2017-Sep-11 03:28N 40°30' E 017°10'0 0.0
2017-Sep-11 02:58N 40°30' E 017°10'0 0.0
2017-Sep-11 02:28N 40°30' E 017°10'0 0.0
2017-Sep-11 01:58N 40°30' E 017°10'0 0.0
2017-Sep-11 01:28N 40°30' E 017°10'0 0.0
2017-Sep-11 00:58N 40°30' E 017°10'0 0.0
2017-Sep-11 00:28N 40°30' E 017°10'0 0.0
2017-Sep-10 23:58N 40°30' E 017°10'0 0.0
2017-Sep-10 23:28N 40°30' E 017°10'0 0.0
2017-Sep-10 22:58N 40°30' E 017°10'0 0.0
2017-Sep-10 22:28N 40°30' E 017°10'0 0.0
2017-Sep-10 21:58N 40°30' E 017°10'0 0.0
2017-Sep-10 21:28N 40°30' E 017°10'0 0.0
2017-Sep-10 20:58N 40°30' E 017°10'0 0.0
2017-Sep-10 20:28N 40°30' E 017°10'0 0.0
2017-Sep-10 19:58N 40°30' E 017°10'0 0.0
2017-Sep-10 19:28N 40°30' E 017°10'0 0.0
2017-Sep-10 18:58N 40°30' E 017°10'0 0.0
2017-Sep-10 18:28N 40°30' E 017°10'0 0.0
2017-Sep-10 17:58N 40°30' E 017°10'0 0.0
2017-Sep-10 17:28N 40°30' E 017°10'0 0.0
2017-Sep-10 16:58N 40°30' E 017°10'0 0.0
2017-Sep-10 16:28N 40°30' E 017°10'0 0.0
2017-Sep-10 15:58N 40°30' E 017°10'0 0.0
2017-Sep-10 15:28N 40°30' E 017°10'0 0.0
2017-Sep-10 14:58N 40°30' E 017°10'0 0.0
2017-Sep-10 13:58N 40°30' E 017°10'0 0.0
2017-Sep-10 13:28N 40°30' E 017°10'0 0.0
2017-Sep-10 12:58N 40°30' E 017°10'0 0.0
2017-Sep-10 12:28N 40°30' E 017°10'0 0.0
2017-Sep-10 11:58N 40°30' E 017°10'0 0.0
2017-Sep-10 11:28N 40°30' E 017°10'0 0.0
2017-Sep-10 10:58N 40°30' E 017°10'0 0.0
2017-Sep-10 10:28N 40°30' E 017°10'0 0.0
2017-Sep-10 09:58N 40°30' E 017°10'0 0.0
2017-Sep-10 09:28N 40°30' E 017°10'0 0.0
2017-Sep-10 08:58N 40°30' E 017°10'0 0.0
2017-Sep-10 08:28N 40°30' E 017°10'0 0.0
2017-Sep-10 07:58N 40°30' E 017°10'0 0.0
2017-Sep-10 07:28N 40°30' E 017°10'0 0.0
2017-Sep-10 06:58N 40°30' E 017°10'0 0.0
2017-Sep-10 06:28N 40°30' E 017°10'0 0.0
2017-Sep-10 05:58N 40°30' E 017°10'0 0.0
2017-Sep-10 05:28N 40°30' E 017°10'0 0.0
2017-Sep-10 04:58N 40°30' E 017°10'0 0.0
2017-Sep-10 04:28N 40°30' E 017°10'0 0.0
2017-Sep-10 03:58N 40°30' E 017°10'0 0.0
2017-Sep-10 03:28N 40°30' E 017°10'  

Dump ship's entire track history